Latest Weather Observations for Kadina

IDS60801

Issued at 7:01 pm CST Friday 1 July 2016 (issued every 30 minutes, with the page automatically refreshed every 10 minutes)

About weather observations | Map of weather stations | Latest weather observations for SA | Other Formats
Station Details ID: 022050 Name: KADINA AWS Lat: -33.97 Lon: 137.66 Height: 41.14 m
Data from the previous 72 hours. | See also: Recent months at Kadina
Date/Time
CST
Temp
°C
App
Temp
°C
Dew
Point
°C
Rel
Hum
%
Delta-T
°C
Wind Press
QNH
hPa
Press
MSL
hPa
Rain since
9am
mm
Dir  Spd
km/h
Gust
km/h
Spd
kts
Gust
kts
01/07:00pm 11.9 10.2 9.8 87 1.1 NW 9 11 5 6 1028.1 - 0.0
01/06:30pm 11.9 10.4 9.1 83 1.4 W 7 9 4 5 1027.9 - 0.0
01/06:00pm 12.4 10.5 8.9 79 1.7 WSW 9 11 5 6 1027.6 1027.5 0.0
01/05:30pm 12.6 10.2 8.7 77 1.9 WSW 11 19 6 10 1027.5 - 0.0
01/05:00pm 12.2 9.9 9.0 81 1.6 W 11 13 6 7 1027.5 - 0.0
01/04:30pm 13.6 9.9 9.5 76 2.1 W 19 24 10 13 1027.2 - 0.0
01/04:00pm 13.9 9.4 8.5 70 2.7 W 22 30 12 16 1027.0 - 0.0
01/03:30pm 14.1 9.2 8.5 69 2.8 W 24 30 13 16 1026.7 - 0.0
01/03:00pm 14.1 9.3 8.7 70 2.7 W 24 30 13 16 1026.5 1026.4 0.0
01/02:30pm 14.1 9.4 9.3 73 2.5 W 24 32 13 17 1026.3 - 0.0
01/02:00pm 14.2 9.3 9.8 75 2.3 W 26 33 14 18 1026.4 - 0.0
01/01:30pm 14.2 9.7 10.0 76 2.2 W 24 30 13 16 1026.7 - 0.0
01/01:00pm 14.3 10.7 10.7 79 1.9 WSW 20 28 11 15 1026.9 - 0.0
01/12:30pm 13.9 9.7 9.7 76 2.2 W 22 30 12 16 1027.0 - 0.0
01/12:00pm 14.1 9.9 9.9 76 2.2 W 22 30 12 16 1027.3 1027.2 0.0
01/11:30am 14.4 10.9 12.1 86 1.2 W 22 28 12 15 1027.5 - 0.0
01/11:00am 13.5 9.9 9.9 79 1.9 SW 19 26 10 14 1027.7 - 0.0
01/10:30am 13.2 12.3 10.6 84 1.4 SSE 6 9 3 5 1027.7 - 0.0
01/10:00am 12.0 11.0 11.1 94 0.5 E 7 9 4 5 1027.5 - 0.0
01/09:30am 11.4 11.6 10.6 95 0.4 CALM 0 0 0 0 1027.2 - 0.0
01/09:00am 10.2 8.8 9.6 96 0.3 SSE 7 13 4 7 1026.9 1026.8 4.8
01/08:30am 10.1 9.6 9.5 96 0.3 SW 2 7 1 4 1026.4 - 4.8
01/08:00am 9.0 8.6 8.4 96 0.3 CALM 0 2 0 1 1026.1 - 4.8
01/07:30am 8.9 6.8 8.3 96 0.3 N 9 11 5 6 1025.8 - 4.8
01/07:00am 8.7 6.9 8.1 96 0.3 ENE 7 9 4 5 1025.4 - 4.8
01/06:30am 8.9 8.5 8.1 95 0.4 CALM 0 0 0 0 1025.1 - 4.8
01/06:00am 9.2 8.8 8.4 95 0.4 CALM 0 0 0 0 1024.6 1024.5 4.8
01/05:30am 9.5 8.1 8.7 95 0.4 ESE 6 7 3 4 1024.2 - 4.8
01/05:00am 9.7 8.3 8.9 95 0.4 SSE 6 9 3 5 1023.9 - 4.8
01/04:30am 9.3 8.2 8.5 95 0.4 SSE 4 9 2 5 1023.6 - 4.6
01/04:00am 9.3 8.6 8.5 95 0.4 SSW 2 9 1 5 1023.2 - 4.6
01/03:30am 9.2 7.5 8.4 95 0.4 S 7 9 4 5 1023.1 - 4.4
01/03:00am 9.5 7.1 8.7 95 0.4 SW 11 13 6 7 1023.2 1023.2 4.4
01/02:30am 9.8 6.3 8.9 94 0.4 SW 17 30 9 16 1023.1 - 4.4
01/02:00am 10.2 5.9 8.0 86 1.1 SW 20 33 11 18 1022.8 - 3.6
01/01:30am 9.9 7.1 8.5 91 0.7 WSW 13 17 7 9 1022.7 - 3.6
01/01:00am 9.3 7.2 8.4 94 0.4 SSW 9 15 5 8 1022.7 - 3.6
01/12:30am 9.4 7.0 8.5 94 0.4 SW 11 19 6 10 1022.7 - 3.4
01/12:00am 9.3 7.2 8.1 92 0.6 S 9 13 5 7 1022.8 1022.8 3.0
 
Date/Time
CST
Temp
°C
App
Temp
°C
Dew
Point
°C
Rel
Hum
%
Delta-T
°C
Wind Press
QNH
hPa
Press
MSL
hPa
Rain since
9am
mm
Dir  Spd
km/h
Gust
km/h
Spd
kts
Gust
kts
30/11:30pm 9.6 5.3 7.9 89 0.8 SSW 20 26 11 14 1022.5 - 2.6
30/11:00pm 8.4 6.4 7.3 93 0.5 SE 7 9 4 5 1022.0 - 2.2
30/10:30pm 9.5 5.5 8.1 91 0.7 SSE 19 26 10 14 1021.9 - 2.2
30/10:13pm 10.0 4.3 8.3 89 0.8 SW 28 39 15 21 1021.9 - 2.0
30/10:00pm 9.0 7.3 7.6 91 0.7 SSE 6 9 3 5 1021.8 - 2.0
30/09:30pm 9.3 7.2 8.1 92 0.6 S 9 15 5 8 1021.7 - 2.0
30/09:00pm 10.0 5.5 8.4 90 0.8 WSW 22 33 12 18 1021.1 1021.1 2.0
30/08:50pm 10.1 4.4 8.4 89 0.8 WSW 28 43 15 23 1021.3 - 2.0
30/08:30pm 9.5 5.7 7.6 88 0.9 W 17 20 9 11 1021.0 - 2.0
30/08:00pm 9.6 6.9 7.5 87 1.0 SW 11 13 6 7 1020.6 - 2.0
30/07:30pm 10.0 5.1 8.4 90 0.8 WSW 24 39 13 21 1020.3 - 2.0
30/07:12pm 10.9 3.7 7.8 81 1.5 WSW 35 43 19 23 1020.1 - 1.8
30/07:00pm 10.1 7.1 7.5 84 1.2 WSW 13 19 7 10 1019.8 - 1.8
30/06:30pm 10.6 6.5 7.8 83 1.4 SW 19 22 10 12 1019.3 - 1.6
30/06:00pm 10.9 6.0 7.0 77 1.9 WSW 22 30 12 16 1018.8 1018.8 1.6
30/05:30pm 11.3 6.3 6.6 73 2.2 WSW 22 30 12 16 1018.3 - 1.6
30/05:08pm 11.0 3.2 6.7 75 2.0 SW 37 56 20 30 1018.3 - 1.6
30/05:00pm 11.4 2.9 6.9 74 2.1 SW 41 56 22 30 1018.1 - 1.6
30/04:30pm 12.1 5.4 7.2 72 2.4 SW 32 43 17 23 1017.7 - 1.6
30/04:00pm 12.5 4.3 6.5 67 2.9 SW 39 50 21 27 1017.3 - 1.6
30/03:00pm 14.0 5.8 6.6 61 3.6 WSW 39 50 21 27 1016.3 1016.3 1.6
30/02:30pm 13.7 4.8 5.3 57 3.9 WSW 41 50 22 27 1016.0 - 1.6
30/02:00pm 13.7 5.4 6.3 61 3.5 SW 39 50 21 27 1015.8 - 1.6
30/01:49pm 13.9 6.7 7.7 66 3.1 WSW 35 54 19 29 1015.8 - 1.6
30/01:30pm 13.3 6.3 8.4 72 2.4 WSW 35 44 19 24 1015.8 - 1.6
30/01:00pm 14.2 8.5 11.2 82 1.6 W 32 44 17 24 1015.7 - 1.6
30/12:30pm 13.0 7.7 11.1 88 1.0 W 30 39 16 21 1015.7 - 1.6
30/12:22pm 12.3 6.5 10.7 90 0.8 WSW 32 50 17 27 1015.8 - 1.6
30/12:09pm 13.0 5.5 9.3 78 1.9 WSW 39 50 21 27 1015.8 - 1.0
30/12:00pm 13.3 7.4 11.0 86 1.2 W 33 44 18 24 1015.8 1015.8 1.0
30/11:30am 14.1 7.9 11.4 84 1.4 W 35 43 19 23 1015.8 - 1.0
30/11:00am 13.9 7.9 12.1 89 1.0 WNW 35 43 19 23 1015.7 - 1.0
30/10:30am 12.5 6.5 10.7 89 0.9 WNW 33 44 18 24 1015.6 - 1.0
30/10:00am 12.2 6.9 11.1 93 0.6 WNW 30 41 16 22 1016.0 - 1.0
30/09:30am 13.2 7.2 10.2 82 1.6 NNW 32 39 17 21 1015.4 - 0.0
30/09:00am 13.1 7.5 10.1 82 1.5 NNW 30 37 16 20 1015.1 1015.1 0.2
30/08:30am 12.1 6.6 9.3 83 1.4 NNW 28 37 15 20 1014.7 - 0.2
30/08:00am 12.3 6.4 9.1 81 1.6 NW 30 41 16 22 1014.4 - 0.2
30/07:30am 11.9 6.0 8.9 82 1.5 NW 30 39 16 21 1014.3 - 0.2
30/07:00am 11.7 5.2 8.2 79 1.7 NNW 32 41 17 22 1013.8 - 0.2
30/06:30am 12.1 4.6 8.0 76 2.0 NNW 37 46 20 25 1013.5 - 0.2
30/06:00am 11.5 5.0 8.0 79 1.7 NNW 32 39 17 21 1013.3 1013.2 0.2
30/05:30am 11.5 5.3 7.8 78 1.8 NNW 30 39 16 21 1013.3 - 0.2
30/05:00am 11.5 4.7 7.8 78 1.8 NNW 33 43 18 23 1013.2 - 0.2
30/04:30am 11.6 4.3 7.3 75 2.1 NNW 35 44 19 24 1013.1 - 0.2
30/04:00am 11.4 4.8 7.9 79 1.7 NNW 32 39 17 21 1013.5 - 0.2
30/03:30am 11.5 4.7 7.8 78 1.8 N 33 46 18 25 1013.8 - 0.2
30/03:00am 11.6 4.5 7.9 78 1.8 N 35 44 19 24 1013.7 1013.6 0.2
30/02:30am 11.5 4.4 8.0 79 1.7 N 35 43 19 23 1013.9 - 0.2
30/02:00am 11.3 3.9 8.2 81 1.5 N 37 52 20 28 1014.0 - 0.2
30/01:30am 11.9 4.4 8.0 77 1.9 N 37 48 20 26 1014.4 - 0.0
30/01:00am 12.3 4.3 7.6 73 2.3 N 39 50 21 27 1014.5 - 0.0
30/12:30am 12.3 3.5 7.4 72 2.4 N 43 56 23 30 1014.9 - 0.0
30/12:13am 12.5 4.5 7.4 71 2.5 N 39 57 21 31 1014.9 - 0.0
30/12:00am 12.3 4.0 7.6 73 2.3 N 41 54 22 29 1015.0 1014.9 0.0
 
Date/Time
CST
Temp
°C
App
Temp
°C
Dew
Point
°C
Rel
Hum
%
Delta-T
°C
Wind Press
QNH
hPa
Press
MSL
hPa
Rain since
9am
mm
Dir  Spd
km/h
Gust
km/h
Spd
kts
Gust
kts
29/11:30pm 12.1 3.3 7.4 73 2.3 N 43 54 23 29 1014.9 - 0.0
29/11:00pm 11.9 3.0 7.0 72 2.4 N 43 57 23 31 1015.2 - 0.0
29/10:30pm 11.8 3.3 6.9 72 2.3 N 41 52 22 28 1015.4 - 0.0
29/10:00pm 11.9 4.6 7.2 73 2.3 N 35 48 19 26 1015.8 - 0.0
29/09:30pm 12.0 4.7 7.3 73 2.3 N 35 44 19 24 1016.1 - 0.0
29/09:00pm 12.1 5.2 7.2 72 2.4 N 33 43 18 23 1016.4 1016.4 0.0
29/08:30pm 11.9 5.6 7.4 74 2.2 N 30 39 16 21 1016.8 - 0.0
29/08:00pm 12.2 5.4 7.1 71 2.5 N 32 41 17 22 1016.7 - 0.0
29/07:30pm 12.1 6.1 7.0 71 2.5 N 28 39 15 21 1016.7 - 0.0
29/07:00pm 12.1 4.7 6.6 69 2.6 N 35 46 19 25 1016.8 - 0.0
29/06:30pm 12.0 5.5 6.7 70 2.5 N 30 37 16 20 1016.9 - 0.0
29/06:00pm 11.8 5.3 6.7 71 2.4 N 30 39 16 21 1016.9 1016.9 0.0
29/05:30pm 12.0 5.0 6.9 71 2.4 N 33 46 18 25 1017.0 - 0.0
29/05:00pm 12.5 4.4 7.0 69 2.7 N 39 50 21 27 1017.2 - 0.0
29/04:30pm 12.9 4.3 6.7 66 3.0 N 41 52 22 28 1017.3 - 0.0
29/04:00pm 13.3 3.8 6.9 65 3.1 N 46 59 25 32 1017.6 - 0.0
29/03:30pm 13.4 3.5 6.7 64 3.2 N 48 61 26 33 1017.7 - 0.0
29/03:00pm 13.5 3.6 6.8 64 3.2 N 48 59 26 32 1018.4 1018.4 0.0
29/02:30pm 13.3 3.4 6.6 64 3.2 N 48 65 26 35 1018.5 - 0.0
29/02:28pm 13.3 3.8 6.6 64 3.2 N 46 65 25 35 1018.5 - 0.0
29/02:00pm 13.6 4.1 6.7 63 3.3 N 46 61 25 33 1018.8 - 0.0
29/01:30pm 13.5 4.4 6.6 63 3.3 N 44 59 24 32 1019.5 - 0.0
29/01:00pm 13.1 3.6 6.5 64 3.2 N 46 63 25 34 1020.2 - 0.0
29/12:45pm 13.1 4.1 6.5 64 3.2 N 43 61 23 33 1020.5 - 0.0
29/12:30pm 12.6 2.9 6.0 64 3.1 N 46 59 25 32 1021.0 - 0.0
29/12:06pm 12.4 3.3 6.0 65 3.0 N 43 63 23 34 1021.6 - 0.0
29/12:00pm 12.3 3.6 5.9 65 3.0 N 41 57 22 31 1021.7 1021.7 0.0
29/11:30am 12.0 4.6 6.7 70 2.5 N 35 48 19 26 1022.6 - 0.0
29/11:00am 11.9 4.0 6.4 69 2.6 NNW 37 44 20 24 1023.2 - 0.0
29/10:30am 11.6 5.6 7.1 74 2.2 N 28 44 15 24 1023.6 - 0.0
29/10:00am 11.4 6.4 7.9 79 1.7 N 24 32 13 17 1024.3 - 0.0
29/09:30am 11.3 6.2 7.8 79 1.7 N 24 32 13 17 1024.5 - 0.0
29/09:00am 11.4 5.9 7.7 78 1.8 NNW 26 35 14 19 1024.5 1024.4 0.0
29/08:30am 11.0 5.9 7.7 80 1.6 N 24 32 13 17 1024.4 - 0.0
29/08:00am 10.9 5.4 7.6 80 1.6 N 26 32 14 17 1024.4 - 0.0
29/07:30am 10.2 6.0 7.6 84 1.2 N 19 26 10 14 1024.4 - 0.0
29/07:00am 8.3 4.3 6.8 90 0.7 N 17 20 9 11 1024.3 - 0.0
29/06:30am 7.7 3.6 6.3 91 0.6 N 17 20 9 11 1024.3 - 0.0
29/06:00am 7.0 3.5 5.5 90 0.7 NNE 13 15 7 8 1024.4 1024.3 0.0
29/05:30am 6.3 1.9 4.6 89 0.7 NE 17 19 9 10 1024.4 - 0.0
29/05:00am 5.8 1.2 3.8 87 0.8 NE 17 20 9 11 1024.4 - 0.0
29/04:30am 5.3 0.6 3.3 87 0.8 NE 17 19 9 10 1024.3 - 0.0
29/04:00am 5.9 0.9 3.7 86 0.9 NNE 19 20 10 11 1024.3 - 0.0
29/03:30am 6.2 1.3 4.0 86 0.9 NE 19 22 10 12 1024.4 - 0.0
29/03:00am 6.1 1.2 4.3 88 0.8 NNE 19 20 10 11 1024.5 1024.4 0.0
29/02:30am 5.5 0.5 3.7 88 0.8 NE 19 20 10 11 1024.9 - 0.0
29/02:00am 5.4 0.7 3.4 87 0.8 NE 17 19 9 10 1024.9 - 0.0
29/01:30am 5.5 0.5 3.5 87 0.8 NE 19 19 10 10 1025.1 - 0.0
29/01:00am 5.5 0.9 3.7 88 0.8 NE 17 20 9 11 1025.3 - 0.0
29/12:30am 5.4 1.2 3.7 89 0.7 NE 15 17 8 9 1025.5 - 0.0
29/12:00am 5.7 1.2 4.0 89 0.7 NE 17 20 9 11 1025.6 1025.5 0.0
 
Date/Time
CST
Temp
°C
App
Temp
°C
Dew
Point
°C
Rel
Hum
%
Delta-T
°C
Wind Press
QNH
hPa
Press
MSL
hPa
Rain since
9am
mm
Dir  Spd
km/h
Gust
km/h
Spd
kts
Gust
kts
28/11:30pm 5.9 1.5 4.7 92 0.5 NE 17 17 9 9 1025.8 - 0.0
28/11:00pm 6.4 2.5 5.2 92 0.5 NE 15 17 8 9 1026.1 - 0.0
28/10:30pm 7.0 3.1 5.5 90 0.7 NNE 15 17 8 9 1026.1 - 0.0
28/10:00pm 8.2 4.1 6.3 88 0.9 NNE 17 20 9 11 1026.2 - 0.0
28/09:30pm 9.1 4.6 7.1 87 0.9 N 20 22 11 12 1026.3 - 0.0
28/09:00pm 9.3 5.1 7.3 87 0.9 NNE 19 24 10 13 1026.3 1026.2 0.0
28/08:30pm 9.0 4.7 6.8 86 1.0 NNE 19 20 10 11 1026.2 - 0.0
28/08:00pm 9.0 5.0 6.8 86 1.0 NNE 17 20 9 11 1026.1 - 0.0
28/07:30pm 9.1 5.2 6.9 86 1.0 NNE 17 20 9 11 1025.9 - 0.0

Other Formats:

Comma delimited format used in spreadsheet applications
http://www.bom.gov.au/fwo/IDS60801/IDS60801.94685.axf

JavaScript Object Notation format (JSON) in row-major order
http://www.bom.gov.au/fwo/IDS60801/IDS60801.94685.json